createdAt,value
2022-11-29T00:01:11.362Z,0.09
2022-11-29T00:03:38.412Z,0.07
2022-11-29T00:06:10.193Z,0.11
2022-11-29T00:08:37.169Z,0.05
2022-11-29T00:11:11.810Z,0.19
2022-11-29T00:13:39.107Z,-0.03
2022-11-29T00:16:10.509Z,0.03
2022-11-29T00:18:37.181Z,-0.06
2022-11-29T00:21:08.164Z,-0.11
2022-11-29T00:23:35.988Z,-0.10
2022-11-29T00:26:04.560Z,-0.05
2022-11-29T00:28:31.143Z,-0.09
2022-11-29T00:30:57.768Z,-0.19
2022-11-29T00:33:24.405Z,-0.13
2022-11-29T00:35:50.960Z,-0.14
2022-11-29T00:38:17.671Z,-0.19
2022-11-29T00:40:44.275Z,-0.21
2022-11-29T00:43:10.842Z,-0.20
2022-11-29T00:45:37.413Z,-0.13
2022-11-29T00:48:04.213Z,-0.12
2022-11-29T00:50:30.771Z,-0.05
2022-11-29T00:52:57.422Z,-0.06
2022-11-29T00:55:23.986Z,-0.09
2022-11-29T00:57:50.527Z,-0.04
2022-11-29T01:00:17.651Z,-0.10
2022-11-29T01:02:44.230Z,-0.02
2022-11-29T01:05:10.836Z,0.00
2022-11-29T01:07:37.420Z,-0.02
2022-11-29T01:10:04.933Z,0.10
2022-11-29T01:12:31.610Z,0.02
2022-11-29T01:14:58.958Z,0.19
2022-11-29T01:17:25.523Z,0.10
2022-11-29T01:19:52.134Z,-0.10
2022-11-29T01:22:18.761Z,-0.06
2022-11-29T01:24:45.620Z,-0.11
2022-11-29T01:27:12.505Z,-0.13
2022-11-29T01:29:39.226Z,-0.20
2022-11-29T01:32:05.814Z,-0.14
2022-11-29T01:34:32.399Z,-0.07
2022-11-29T01:36:58.995Z,-0.22
2022-11-29T01:39:25.604Z,-0.21
2022-11-29T01:41:52.171Z,-0.12
2022-11-29T01:44:18.702Z,-0.12
2022-11-29T01:46:48.158Z,-0.06
2022-11-29T01:49:19.516Z,0.01
2022-11-29T01:51:49.884Z,-0.14
2022-11-29T01:54:17.694Z,-0.15
2022-11-29T01:56:47.881Z,-0.15
2022-11-29T01:59:19.186Z,-0.17
2022-11-29T02:01:45.956Z,-0.30
2022-11-29T02:04:12.820Z,-0.17
2022-11-29T02:06:41.303Z,-0.25
2022-11-29T02:09:19.959Z,-0.27
2022-11-29T02:12:20.041Z,-0.28
2022-11-29T02:15:08.522Z,-0.39
2022-11-29T02:17:51.282Z,-0.38
2022-11-29T02:20:51.887Z,-0.45
2022-11-29T02:23:44.659Z,-0.52
2022-11-29T02:26:48.809Z,-0.43
2022-11-29T02:29:34.108Z,-0.58
2022-11-29T02:32:19.728Z,-0.48
2022-11-29T02:35:07.853Z,-0.49
2022-11-29T02:38:08.713Z,-0.59
2022-11-29T02:40:35.222Z,-0.55
2022-11-29T02:43:35.846Z,-0.55
2022-11-29T02:46:17.852Z,-0.48
2022-11-29T02:49:10.684Z,-0.61
2022-11-29T02:51:49.650Z,-0.62
2022-11-29T02:54:46.889Z,-0.64
2022-11-29T02:57:19.891Z,-0.68
2022-11-29T02:59:46.375Z,-0.77
2022-11-29T03:02:20.093Z,-0.69
2022-11-29T03:05:15.622Z,-0.62
2022-11-29T03:07:54.230Z,-0.60
2022-11-29T03:10:32.927Z,-0.61
2022-11-29T03:13:03.817Z,-0.55
2022-11-29T03:15:41.695Z,-0.67
2022-11-29T03:18:14.875Z,-0.63
2022-11-29T03:21:08.536Z,-0.71
2022-11-29T03:23:39.895Z,-0.77
2022-11-29T03:26:35.603Z,-0.81
2022-11-29T03:29:45.427Z,-0.80
2022-11-29T03:32:22.781Z,-0.64
2022-11-29T03:34:56.952Z,-0.74
2022-11-29T03:37:47.649Z,-0.79
2022-11-29T03:40:19.938Z,-0.72
2022-11-29T03:43:18.162Z,-0.81
2022-11-29T03:46:29.786Z,-0.72
2022-11-29T03:49:09.784Z,-0.74
2022-11-29T03:51:36.254Z,-0.66
2022-11-29T03:54:09.627Z,-0.64
2022-11-29T03:56:39.685Z,-0.80
2022-11-29T03:59:37.024Z,-0.77
2022-11-29T04:02:41.193Z,-0.71
2022-11-29T04:05:20.218Z,-0.69
2022-11-29T04:08:02.227Z,-0.55
2022-11-29T04:10:37.640Z,-0.57
2022-11-29T04:13:35.486Z,-0.60
2022-11-29T04:16:03.071Z,-0.51
2022-11-29T04:19:07.488Z,-0.61
2022-11-29T04:22:06.756Z,-0.54
2022-11-29T04:24:50.798Z,-0.50
2022-11-29T04:27:37.022Z,-0.54
2022-11-29T04:30:16.237Z,-0.54
2022-11-29T04:32:58.082Z,-0.55
2022-11-29T04:36:05.050Z,-0.55
2022-11-29T04:38:53.583Z,-0.58
2022-11-29T04:41:42.009Z,-0.67
2022-11-29T04:44:39.648Z,-0.67
2022-11-29T04:47:18.416Z,-0.66
2022-11-29T04:49:54.123Z,-0.70
2022-11-29T04:52:45.249Z,-0.61
2022-11-29T04:55:39.805Z,-0.65
2022-11-29T04:58:20.984Z,-0.64
2022-11-29T05:01:01.195Z,-0.64
2022-11-29T05:03:55.441Z,-0.69
2022-11-29T05:06:58.767Z,-0.69
2022-11-29T05:09:34.844Z,-0.50
2022-11-29T05:12:13.760Z,-0.40
2022-11-29T05:14:50.277Z,-0.78
2022-11-29T05:17:48.033Z,-0.72
2022-11-29T05:20:23.854Z,-0.74
2022-11-29T05:23:21.128Z,-0.74
2022-11-29T05:25:52.907Z,-0.80
2022-11-29T05:28:37.812Z,-0.78
2022-11-29T05:31:11.577Z,-0.82
2022-11-29T05:33:55.202Z,-0.87
2022-11-29T05:37:02.875Z,-0.67
2022-11-29T05:39:49.538Z,-0.62
2022-11-29T05:42:42.582Z,-0.73
2022-11-29T05:45:25.407Z,-0.67
2022-11-29T05:48:13.696Z,-0.59
2022-11-29T05:51:03.147Z,-0.67
2022-11-29T05:54:14.423Z,-0.57
2022-11-29T05:56:59.416Z,-0.58
2022-11-29T05:59:30.551Z,-0.50
2022-11-29T06:02:24.403Z,-0.47
2022-11-29T06:05:24.431Z,-0.50
2022-11-29T06:07:54.033Z,-0.49
2022-11-29T06:10:28.797Z,-0.48
2022-11-29T06:13:29.526Z,-0.68
2022-11-29T06:16:08.945Z,-0.67
2022-11-29T06:19:17.241Z,-0.65
2022-11-29T06:22:11.541Z,-0.62
2022-11-29T06:24:50.749Z,-0.52
2022-11-29T06:27:29.697Z,-0.47
2022-11-29T06:30:10.397Z,-0.45
2022-11-29T06:32:48.974Z,-0.38
2022-11-29T06:35:51.141Z,-0.38
2022-11-29T06:38:27.591Z,-0.25
2022-11-29T06:41:01.399Z,-0.29
2022-11-29T06:43:29.547Z,-0.21
2022-11-29T06:46:28.889Z,-0.24
2022-11-29T06:49:09.982Z,-0.21
2022-11-29T06:51:51.559Z,-0.36
2022-11-29T06:54:56.550Z,-0.28
2022-11-29T06:57:34.293Z,-0.13
2022-11-29T07:00:22.297Z,-0.37
2022-11-29T07:03:25.761Z,-0.33
2022-11-29T07:05:52.545Z,-0.06
2022-11-29T07:08:22.822Z,-0.14
2022-11-29T07:10:53.219Z,-0.22
2022-11-29T07:13:20.671Z,-0.22
2022-11-29T07:15:59.522Z,-0.01
2022-11-29T07:18:28.828Z,0.12
2022-11-29T07:21:52.759Z,-0.13
2022-11-29T07:24:19.251Z,-0.01
2022-11-29T07:26:59.608Z,-0.02
2022-11-29T07:29:39.859Z,0.11
2022-11-29T07:32:34.479Z,0.06
2022-11-29T07:35:30.457Z,-0.01
2022-11-29T07:38:21.566Z,-0.16
2022-11-29T07:41:08.146Z,0.11
2022-11-29T07:43:34.706Z,0.22
2022-11-29T07:46:01.824Z,0.28
2022-11-29T07:48:28.492Z,0.29
2022-11-29T07:50:56.514Z,0.33
2022-11-29T07:53:24.210Z,0.37
2022-11-29T07:55:50.962Z,0.35
2022-11-29T07:58:17.966Z,0.54
2022-11-29T08:00:45.305Z,0.42
2022-11-29T08:03:12.498Z,0.36
2022-11-29T08:05:39.748Z,0.25
2022-11-29T08:08:06.916Z,0.25
2022-11-29T08:10:34.209Z,0.34
2022-11-29T08:13:00.784Z,0.32
2022-11-29T08:15:27.504Z,0.35
2022-11-29T08:17:54.133Z,0.46
2022-11-29T08:20:20.920Z,0.28
2022-11-29T08:22:59.206Z,0.22
2022-11-29T08:25:27.968Z,0.22
2022-11-29T08:27:55.343Z,0.21
2022-11-29T08:30:22.708Z,0.22
2022-11-29T08:32:51.737Z,0.50
2022-11-29T08:35:20.622Z,0.42
2022-11-29T08:37:47.253Z,0.48
2022-11-29T08:40:14.403Z,0.49
2022-11-29T08:42:40.967Z,0.20
2022-11-29T08:45:09.492Z,0.24
2022-11-29T08:47:37.339Z,0.28
2022-11-29T08:50:16.921Z,0.44
2022-11-29T08:53:07.631Z,0.42
2022-11-29T08:55:35.259Z,0.50
2022-11-29T08:58:06.302Z,0.52
2022-11-29T09:00:34.232Z,0.74
2022-11-29T09:03:24.583Z,0.51
2022-11-29T09:05:52.174Z,0.76
2022-11-29T09:08:19.761Z,0.85
2022-11-29T09:10:46.375Z,0.94
2022-11-29T09:13:13.336Z,1.37
2022-11-29T09:15:41.907Z,0.94
2022-11-29T09:18:08.445Z,1.02
2022-11-29T09:20:35.371Z,1.27
2022-11-29T09:23:02.054Z,1.31
2022-11-29T09:25:28.799Z,1.22
2022-11-29T09:27:58.486Z,1.08
2022-11-29T09:30:25.091Z,1.44
2022-11-29T09:32:51.638Z,1.87
2022-11-29T09:35:18.294Z,2.12
2022-11-29T09:37:44.867Z,2.31
2022-11-29T09:40:21.311Z,2.09
2022-11-29T09:43:06.340Z,1.78
2022-11-29T09:45:38.520Z,2.21
2022-11-29T09:48:11.239Z,2.23
2022-11-29T09:50:46.910Z,1.98
2022-11-29T09:53:19.566Z,2.21
2022-11-29T09:56:18.156Z,1.77
2022-11-29T09:59:01.251Z,2.50
2022-11-29T10:01:49.484Z,2.24
2022-11-29T10:04:20.562Z,2.36
2022-11-29T10:07:03.722Z,2.14
2022-11-29T10:09:39.007Z,2.41
2022-11-29T10:12:23.763Z,2.36
2022-11-29T10:15:13.791Z,2.82
2022-11-29T10:17:58.022Z,2.41
2022-11-29T10:20:27.244Z,2.46
2022-11-29T10:23:22.123Z,2.46
2022-11-29T10:25:54.215Z,2.08
2022-11-29T10:28:26.086Z,2.27
2022-11-29T10:31:14.789Z,2.23
2022-11-29T10:33:42.132Z,2.47
2022-11-29T10:36:39.842Z,2.58
2022-11-29T10:39:14.784Z,2.59
2022-11-29T10:41:41.720Z,2.63
2022-11-29T10:44:13.814Z,2.54
2022-11-29T10:46:41.200Z,2.46
2022-11-29T10:49:15.035Z,2.01
2022-11-29T10:51:41.688Z,2.54
2022-11-29T10:54:25.037Z,2.30
2022-11-29T10:56:52.252Z,2.71
2022-11-29T10:59:25.253Z,2.62
2022-11-29T11:01:52.350Z,2.77
2022-11-29T11:04:44.520Z,2.61
2022-11-29T11:07:24.844Z,2.44
2022-11-29T11:09:55.911Z,2.80
2022-11-29T11:12:26.262Z,2.42
2022-11-29T11:15:15.038Z,2.64
2022-11-29T11:17:56.018Z,2.66
2022-11-29T11:20:24.174Z,2.67
2022-11-29T11:23:28.964Z,2.45
2022-11-29T11:26:08.179Z,2.49
2022-11-29T11:29:00.159Z,2.71
2022-11-29T11:31:34.265Z,2.79
2022-11-29T11:34:23.850Z,2.63
2022-11-29T11:36:50.461Z,2.28
2022-11-29T11:39:22.936Z,2.49
2022-11-29T11:42:09.626Z,2.68
2022-11-29T11:44:58.423Z,2.52
2022-11-29T11:47:28.605Z,2.71
2022-11-29T11:50:04.196Z,2.55
2022-11-29T11:52:41.258Z,2.12
2022-11-29T11:55:22.422Z,2.28
2022-11-29T11:58:13.800Z,2.28
2022-11-29T12:01:03.320Z,2.08
2022-11-29T12:03:49.328Z,2.06
2022-11-29T12:06:51.186Z,2.31
2022-11-29T12:09:35.812Z,2.12
2022-11-29T12:12:23.705Z,2.53
2022-11-29T12:15:02.694Z,2.42
2022-11-29T12:17:37.937Z,2.44
2022-11-29T12:20:07.436Z,2.31
2022-11-29T12:23:12.666Z,2.57
2022-11-29T12:25:51.464Z,2.57
2022-11-29T12:28:20.818Z,2.64
2022-11-29T12:30:56.359Z,2.43
2022-11-29T12:33:47.099Z,2.53
2022-11-29T12:36:27.343Z,2.62
2022-11-29T12:39:08.170Z,2.57
2022-11-29T12:41:40.735Z,2.54
2022-11-29T12:44:28.544Z,2.66
2022-11-29T12:47:35.368Z,2.97
2022-11-29T12:50:23.212Z,2.91
2022-11-29T12:53:27.567Z,2.63
2022-11-29T12:56:03.774Z,2.77
2022-11-29T12:58:58.424Z,2.93
2022-11-29T13:01:46.442Z,2.71
2022-11-29T13:04:31.625Z,2.76
2022-11-29T13:07:19.900Z,3.03
2022-11-29T13:10:03.431Z,2.83
2022-11-29T13:12:33.153Z,2.80
2022-11-29T13:15:06.882Z,3.09
2022-11-29T13:17:54.908Z,3.03
2022-11-29T13:20:33.426Z,3.07
2022-11-29T13:23:03.051Z,2.99
2022-11-29T13:25:50.726Z,2.82
2022-11-29T13:28:25.348Z,3.01
2022-11-29T13:30:54.326Z,2.63
2022-11-29T13:33:33.142Z,2.85
2022-11-29T13:36:18.561Z,3.00
2022-11-29T13:39:06.706Z,2.60
2022-11-29T13:41:54.363Z,2.60
2022-11-29T13:44:27.339Z,2.58
2022-11-29T13:47:12.471Z,2.25
2022-11-29T13:50:06.171Z,2.12
2022-11-29T13:52:47.611Z,2.15
2022-11-29T13:55:23.398Z,2.36
2022-11-29T13:58:16.745Z,2.37
2022-11-29T14:00:44.020Z,2.32
2022-11-29T14:03:28.809Z,2.45
2022-11-29T14:06:23.083Z,2.19
2022-11-29T14:09:17.855Z,2.23
2022-11-29T14:11:42.277Z,2.30
2022-11-29T14:14:10.462Z,2.21
2022-11-29T14:17:04.900Z,2.27
2022-11-29T14:19:36.433Z,2.29
2022-11-29T14:22:02.975Z,2.35
2022-11-29T14:24:32.701Z,2.43
2022-11-29T14:27:19.436Z,2.36
2022-11-29T14:29:53.974Z,2.43
2022-11-29T14:32:20.610Z,2.19
2022-11-29T14:34:57.432Z,2.07
2022-11-29T14:37:40.261Z,2.20
2022-11-29T14:40:42.011Z,2.08
2022-11-29T14:43:34.697Z,1.99
2022-11-29T14:46:16.567Z,2.14
2022-11-29T14:48:58.510Z,2.17
2022-11-29T14:51:28.732Z,1.99
2022-11-29T14:54:20.006Z,1.99
2022-11-29T14:56:47.458Z,1.87
2022-11-29T14:59:35.836Z,1.76
2022-11-29T15:02:07.145Z,1.70
2022-11-29T15:04:36.584Z,1.72
2022-11-29T15:07:04.526Z,1.67
2022-11-29T15:09:33.971Z,1.61
2022-11-29T15:12:13.127Z,1.55
2022-11-29T15:14:39.606Z,1.57
2022-11-29T15:17:36.428Z,1.56
2022-11-29T15:20:24.761Z,1.67
2022-11-29T15:22:55.320Z,1.67
2022-11-29T15:25:26.503Z,1.65
2022-11-29T15:27:58.069Z,1.64
2022-11-29T15:30:35.278Z,1.53
2022-11-29T15:33:05.302Z,1.61
2022-11-29T15:35:35.035Z,1.65
2022-11-29T15:38:02.553Z,1.59
2022-11-29T15:40:40.804Z,1.56
2022-11-29T15:43:16.546Z,1.60
2022-11-29T15:45:55.532Z,1.65
2022-11-29T15:48:32.539Z,1.59
2022-11-29T15:51:04.887Z,1.57
2022-11-29T15:54:11.652Z,1.49
2022-11-29T15:56:48.674Z,1.52
2022-11-29T15:59:32.313Z,1.49
2022-11-29T16:02:05.526Z,1.45
2022-11-29T16:04:32.266Z,1.36
2022-11-29T16:06:58.894Z,1.39
2022-11-29T16:09:35.299Z,1.45
2022-11-29T16:12:02.944Z,1.43
2022-11-29T16:14:29.521Z,1.41
2022-11-29T16:17:00.519Z,1.43
2022-11-29T16:19:37.972Z,1.40
2022-11-29T16:22:07.502Z,1.47
2022-11-29T16:24:35.016Z,1.46
2022-11-29T16:27:02.231Z,1.49
2022-11-29T16:29:38.256Z,1.53
2022-11-29T16:32:29.821Z,1.55
2022-11-29T16:35:04.116Z,1.54
2022-11-29T16:37:40.746Z,1.50
2022-11-29T16:40:20.059Z,1.58
2022-11-29T16:43:03.121Z,1.31
2022-11-29T16:45:38.701Z,1.28
2022-11-29T16:48:23.572Z,1.31
2022-11-29T16:51:14.765Z,1.35
2022-11-29T16:53:43.003Z,1.38
2022-11-29T16:56:12.107Z,1.30
2022-11-29T16:58:43.225Z,1.35
2022-11-29T17:01:29.332Z,1.16
2022-11-29T17:03:58.476Z,1.19
2022-11-29T17:06:25.938Z,1.18
2022-11-29T17:08:55.723Z,1.20
2022-11-29T17:11:22.664Z,1.15
2022-11-29T17:13:52.989Z,1.14
2022-11-29T17:16:24.239Z,1.23
2022-11-29T17:18:52.838Z,1.30
2022-11-29T17:21:22.702Z,1.40
2022-11-29T17:23:49.596Z,1.33
2022-11-29T17:26:16.927Z,1.35
2022-11-29T17:28:44.895Z,1.25
2022-11-29T17:31:16.486Z,1.38
2022-11-29T17:33:43.510Z,1.58
2022-11-29T17:36:12.760Z,1.66
2022-11-29T17:38:39.294Z,1.63
2022-11-29T17:41:10.512Z,1.53
2022-11-29T17:43:37.648Z,1.61
2022-11-29T17:46:11.127Z,1.67
2022-11-29T17:48:41.083Z,1.58
2022-11-29T17:51:28.827Z,1.69
2022-11-29T17:53:55.435Z,1.69
2022-11-29T17:56:25.416Z,1.76
2022-11-29T17:58:56.495Z,1.71
2022-11-29T18:01:25.695Z,1.66
2022-11-29T18:03:54.684Z,1.78
2022-11-29T18:06:24.851Z,1.77
2022-11-29T18:08:54.278Z,1.88
2022-11-29T18:11:41.676Z,1.94
2022-11-29T18:14:15.312Z,1.95
2022-11-29T18:16:42.501Z,1.85
2022-11-29T18:19:12.353Z,1.96
2022-11-29T18:21:39.535Z,1.98
2022-11-29T18:24:07.201Z,2.03
2022-11-29T18:26:35.684Z,2.00
2022-11-29T18:29:03.668Z,2.02
2022-11-29T18:31:32.514Z,2.05
2022-11-29T18:34:01.104Z,2.00
2022-11-29T18:36:33.138Z,2.11
2022-11-29T18:39:02.410Z,2.02
2022-11-29T18:41:30.251Z,1.99
2022-11-29T18:44:05.061Z,2.02
2022-11-29T18:46:32.971Z,2.06
2022-11-29T18:49:05.096Z,2.03
2022-11-29T18:51:32.220Z,2.05
2022-11-29T18:53:59.515Z,2.13
2022-11-29T18:56:28.878Z,2.13
2022-11-29T18:59:04.359Z,2.13
2022-11-29T19:01:34.366Z,2.13
2022-11-29T19:04:02.017Z,2.17
2022-11-29T19:06:35.589Z,2.10
2022-11-29T19:09:11.547Z,2.21
2022-11-29T19:11:38.579Z,2.18
2022-11-29T19:14:11.336Z,2.17
2022-11-29T19:16:39.614Z,2.07
2022-11-29T19:19:06.656Z,2.20
2022-11-29T19:23:15.522Z,2.32
2022-11-29T19:25:42.293Z,2.26
2022-11-29T19:28:13.878Z,2.24
2022-11-29T19:30:40.944Z,2.23
2022-11-29T19:33:10.462Z,2.33
2022-11-29T19:35:37.025Z,2.35
2022-11-29T19:38:03.636Z,2.32
2022-11-29T19:40:30.218Z,2.37
2022-11-29T19:42:56.811Z,2.34
2022-11-29T19:45:23.373Z,2.33
2022-11-29T19:47:50.050Z,2.40
2022-11-29T19:50:16.708Z,2.30
2022-11-29T19:52:43.324Z,2.32
2022-11-29T19:55:09.998Z,2.21
2022-11-29T19:57:37.124Z,2.30
2022-11-29T20:00:05.208Z,2.21
2022-11-29T20:02:31.814Z,2.23
2022-11-29T20:04:58.472Z,2.10
2022-11-29T20:07:25.116Z,2.17
2022-11-29T20:09:51.744Z,2.21
2022-11-29T20:12:18.362Z,2.18
2022-11-29T20:14:44.879Z,1.96
2022-11-29T20:17:11.495Z,2.02
2022-11-29T20:19:38.131Z,1.94
2022-11-29T20:22:04.784Z,1.91
2022-11-29T20:24:36.643Z,1.91
2022-11-29T20:27:05.712Z,1.96
2022-11-29T20:29:32.942Z,1.94
2022-11-29T20:31:59.530Z,1.95
2022-11-29T20:34:26.807Z,2.05
2022-11-29T20:37:23.524Z,2.03
2022-11-29T20:40:16.633Z,1.99
2022-11-29T20:42:58.059Z,2.03
2022-11-29T20:45:25.580Z,2.09
2022-11-29T20:48:12.009Z,2.11
2022-11-29T20:50:39.227Z,2.05
2022-11-29T20:53:44.025Z,2.11
2022-11-29T20:56:11.422Z,2.14
2022-11-29T20:58:38.994Z,2.11
2022-11-29T21:01:06.573Z,2.15
2022-11-29T21:03:36.740Z,2.10
2022-11-29T21:06:05.278Z,2.03
2022-11-29T21:08:32.535Z,2.10
2022-11-29T21:11:05.015Z,2.10
2022-11-29T21:13:32.118Z,2.06
2022-11-29T21:15:59.409Z,2.07
2022-11-29T21:18:27.983Z,2.06
2022-11-29T21:21:22.835Z,2.21
2022-11-29T21:24:22.521Z,2.18
2022-11-29T21:26:52.849Z,2.08
2022-11-29T21:29:22.614Z,2.11
2022-11-29T21:31:52.525Z,2.02
2022-11-29T21:34:19.898Z,2.01
2022-11-29T21:37:01.677Z,2.10
2022-11-29T21:39:34.768Z,2.18
2022-11-29T21:42:02.808Z,2.19
2022-11-29T21:44:30.543Z,2.06
2022-11-29T21:46:57.110Z,2.11
2022-11-29T21:49:23.699Z,2.20
2022-11-29T21:51:50.306Z,2.13
2022-11-29T21:54:16.870Z,2.09
2022-11-29T21:56:43.478Z,2.15
2022-11-29T21:59:10.045Z,2.22
2022-11-29T22:01:36.652Z,2.11
2022-11-29T22:04:04.304Z,2.09
2022-11-29T22:06:31.176Z,2.14
2022-11-29T22:08:57.771Z,2.09
2022-11-29T22:11:31.031Z,2.14
2022-11-29T22:14:19.014Z,2.07
2022-11-29T22:17:00.275Z,2.08
2022-11-29T22:19:33.045Z,2.05
2022-11-29T22:22:02.406Z,2.17
2022-11-29T22:24:31.318Z,2.11
2022-11-29T22:26:58.145Z,2.10
2022-11-29T22:29:25.124Z,2.11
2022-11-29T22:31:53.549Z,2.14
2022-11-29T22:34:21.131Z,2.14
2022-11-29T22:36:47.966Z,2.17
2022-11-29T22:39:15.009Z,2.15
2022-11-29T22:41:41.815Z,2.10
2022-11-29T22:44:08.795Z,2.10
2022-11-29T22:46:37.871Z,2.21
2022-11-29T22:49:04.480Z,2.16
2022-11-29T22:51:33.854Z,2.10
2022-11-29T22:54:02.806Z,2.20
2022-11-29T22:56:31.808Z,2.16
2022-11-29T22:58:58.791Z,2.29
2022-11-29T23:01:27.549Z,2.22
2022-11-29T23:03:56.960Z,2.15
2022-11-29T23:06:28.999Z,2.28
2022-11-29T23:08:58.205Z,2.25
2022-11-29T23:11:29.431Z,2.26
2022-11-29T23:13:56.024Z,2.27
2022-11-29T23:16:28.148Z,2.25
2022-11-29T23:18:56.500Z,2.26
2022-11-29T23:21:32.141Z,2.25
2022-11-29T23:24:02.496Z,2.30
2022-11-29T23:26:33.992Z,2.33
2022-11-29T23:29:01.935Z,2.19
2022-11-29T23:31:28.530Z,2.32
2022-11-29T23:33:55.396Z,2.32
2022-11-29T23:36:22.041Z,2.32
2022-11-29T23:38:48.860Z,2.44
2022-11-29T23:41:15.771Z,2.46
2022-11-29T23:43:42.485Z,2.51
2022-11-29T23:46:17.955Z,2.39
2022-11-29T23:48:44.662Z,2.42
2022-11-29T23:51:12.061Z,2.46
2022-11-29T23:53:39.325Z,2.41
2022-11-29T23:56:08.571Z,2.39
2022-11-29T23:58:35.306Z,2.32
